Time;durP1;ratioP1;P1;durP2;ratioP2;P2;SDS_P1;SDS_P2;PMS_P1;PMS_P2;Temp;Humidity;BMP_temperature;BMP_pressure;BME280_temperature;BME280_humidity;BME280_pressure;Samples;Min_cycle;Max_cycle;Signal;HPM_P1;HPM_P2
2021/08/15 00:00:11;;;;;;;;;;;;;;;22.44;54.23;101461.28;1587388;38;153389;-54
2021/08/15 00:01:43;;;;;;;;;;;;;;;22.43;54.21;101459.59;1587592;38;154088;-54
2021/08/15 00:03:15;;;;;;;;;;;;;;;22.42;54.07;101458.75;1589308;38;154293;-55
2021/08/15 00:04:47;;;;;;;;;;;;;;;22.43;54.25;101459.59;1588023;38;153337;-54
2021/08/15 00:06:19;;;;;;;;;;;;;;;22.42;54.07;101453.13;1585232;38;153385;-54
2021/08/15 00:07:53;;;;;;;;;;;;;;;22.43;54.25;101449.16;1587374;38;153977;-54
2021/08/15 00:09:26;;;;;;;;;;;;;;;22.41;54.37;101465.53;1587258;38;152766;-55
2021/08/15 00:10:58;;;;;;;;;;;;;;;22.43;54.35;101462.41;1589673;30;154352;-54
2021/08/15 00:12:30;;;;;;;;;;;;;;;22.41;53.82;101461.88;1588658;30;153913;-55
2021/08/15 00:14:02;;;;;;;;;;;;;;;22.40;53.72;101458.22;1588687;38;153375;-55
2021/08/15 00:15:33;;;;;;;;;;;;;;;22.40;53.90;101449.75;1588256;38;153607;-54
2021/08/15 00:17:05;;;;;;;;;;;;;;;22.41;53.93;101454.25;1591016;38;154392;-54
2021/08/15 00:18:39;;;;;;;;;;;;;;;22.40;54.08;101446.09;1584666;38;152588;-55
2021/08/15 00:20:11;;;;;;;;;;;;;;;22.40;53.98;101457.38;1586610;38;153108;-54
2021/08/15 00:21:43;;;;;;;;;;;;;;;22.40;54.09;101455.41;1588200;38;152308;-55
2021/08/15 00:23:15;;;;;;;;;;;;;;;22.41;53.78;101457.06;1588370;38;152352;-55
2021/08/15 00:24:47;;;;;;;;;;;;;;;22.40;54.10;101444.13;1588982;38;153064;-55
2021/08/15 00:26:19;;;;;;;;;;;;;;;22.40;53.76;101451.75;1585909;38;152022;-55
2021/08/15 00:27:51;;;;;;;;;;;;;;;22.38;53.90;101446.44;1588114;30;154072;-55
2021/08/15 00:29:23;;;;;;;;;;;;;;;22.39;54.06;101427.56;1587845;38;152519;-54
2021/08/15 00:30:55;;;;;;;;;;;;;;;22.38;53.65;101429.53;1588144;38;151996;-55
2021/08/15 00:32:27;;;;;;;;;;;;;;;22.38;54.21;101426.72;1588500;38;153145;-54
2021/08/15 00:33:59;;;;;;;;;;;;;;;22.40;53.88;101427.25;1588721;38;151875;-54
2021/08/15 00:35:31;;;;;;;;;;;;;;;22.41;53.62;101420.47;1587628;38;152123;-55
2021/08/15 00:37:03;;;;;;;;;;;;;;;22.41;53.67;101419.63;1586942;38;152680;-55
2021/08/15 00:38:34;;;;;;;;;;;;;;;22.40;53.89;101420.75;1588405;38;152029;-55
2021/08/15 00:40:06;;;;;;;;;;;;;;;22.40;53.61;101415.97;1591518;38;152617;-54
2021/08/15 00:41:38;;;;;;;;;;;;;;;22.41;54.08;101412.03;1588371;38;154156;-54
2021/08/15 00:43:10;;;;;;;;;;;;;;;22.43;53.65;101417.34;1588401;38;152805;-55
2021/08/15 00:44:43;;;;;;;;;;;;;;;22.42;54.07;101416.50;1587970;38;153592;-54
2021/08/15 00:46:15;;;;;;;;;;;;;;;22.39;53.81;101422.78;1588761;38;153417;-55
2021/08/15 00:47:47;;;;;;;;;;;;;;;22.38;53.60;101418.28;1587375;38;153459;-55
2021/08/15 00:49:19;;;;;;;;;;;;;;;22.38;53.94;101417.44;1588753;38;152742;-55
2021/08/15 00:50:51;;;;;;;;;;;;;;;22.46;54.46;101411.09;1588291;38;152686;-54
2021/08/15 00:52:23;;;;;;;;;;;;;;;22.47;54.67;101407.13;1586056;38;153597;-55
2021/08/15 00:53:57;;;;;;;;;;;;;;;22.47;54.55;101410.78;1588116;38;152913;-66
2021/08/15 00:55:29;;;;;;;;;;;;;;;22.50;54.39;101417.78;1587595;38;153451;-58
2021/08/15 00:57:01;;;;;;;;;;;;;;;22.48;53.79;101414.44;1588852;38;153572;-55
2021/08/15 00:58:33;;;;;;;;;;;;;;;22.48;53.53;101409.66;1585876;30;153799;-55
2021/08/15 01:00:06;;;;;;;;;;;;;;;22.47;53.70;101402.34;1588193;38;152956;-55
2021/08/15 01:01:38;;;;;;;;;;;;;;;22.44;53.91;101408.56;1590841;30;152879;-55
2021/08/15 01:03:10;;;;;;;;;;;;;;;22.42;53.95;101412.88;1588399;38;153985;-54
2021/08/15 01:04:42;;;;;;;;;;;;;;;22.40;54.10;101413.16;1589025;30;154005;-55
2021/08/15 01:06:14;;;;;;;;;;;;;;;22.40;54.47;101401.06;1586900;38;154494;-54
2021/08/15 01:07:46;;;;;;;;;;;;;;;22.39;53.96;101397.44;1588201;38;153353;-54
2021/08/15 01:09:19;;;;;;;;;;;;;;;22.38;54.35;101398.56;1588878;38;153403;-55
2021/08/15 01:10:51;;;;;;;;;;;;;;;22.37;54.35;101399.72;1588273;38;153827;-54
2021/08/15 01:12:26;;;;;;;;;;;;;;;22.37;54.32;101396.06;1589165;38;153440;-54
2021/08/15 01:14:01;;;;;;;;;;;;;;;22.37;54.56;101401.69;1589098;38;153368;-55
2021/08/15 01:15:33;;;;;;;;;;;;;;;22.41;54.97;101400.75;1588112;38;154833;-58
2021/08/15 01:17:04;;;;;;;;;;;;;;;22.41;54.92;101403.56;1588863;38;154161;-54
2021/08/15 01:18:38;;;;;;;;;;;;;;;22.40;54.28;101396.25;1586887;38;153252;-55
2021/08/15 01:20:10;;;;;;;;;;;;;;;22.39;54.24;101394.63;1586129;38;153410;-54
2021/08/15 01:21:43;;;;;;;;;;;;;;;22.38;54.55;101387.31;1589384;38;153488;-55
2021/08/15 01:23:15;;;;;;;;;;;;;;;22.36;54.21;101383.13;1589373;38;154538;-55
2021/08/15 01:24:47;;;;;;;;;;;;;;;22.37;54.59;101381.97;1587479;38;152424;-55
2021/08/15 01:26:28;;;;;;;;;;;;;;;22.35;54.64;101384.28;1589637;38;152059;-54
2021/08/15 01:28:00;;;;;;;;;;;;;;;22.34;54.79;101380.63;1589014;38;152121;-54
2021/08/15 01:29:32;;;;;;;;;;;;;;;22.35;54.31;101382.28;1588135;38;152055;-54
2021/08/15 01:31:04;;;;;;;;;;;;;;;22.34;54.54;101383.44;1588572;38;151914;-54
2021/08/15 01:32:37;;;;;;;;;;;;;;;22.33;54.58;101378.97;1588408;38;152264;-54
2021/08/15 01:34:09;;;;;;;;;;;;;;;22.34;54.24;101374.16;1587445;38;152036;-55
2021/08/15 01:35:41;;;;;;;;;;;;;;;22.33;54.51;101376.13;1588998;38;151948;-53
2021/08/15 01:37:12;;;;;;;;;;;;;;;22.33;54.36;101376.13;1587946;38;152146;-54
2021/08/15 01:38:46;;;;;;;;;;;;;;;22.32;54.46;101377.28;1589037;30;152415;-55
2021/08/15 01:40:18;;;;;;;;;;;;;;;22.32;54.71;101371.66;1589140;38;151978;-55
2021/08/15 01:41:49;;;;;;;;;;;;;;;22.32;54.31;101374.47;1589764;30;151783;-54
2021/08/15 01:43:22;;;;;;;;;;;;;;;22.32;54.52;101374.47;1586498;38;152050;-55
2021/08/15 01:44:53;;;;;;;;;;;;;;;22.32;54.29;101373.63;1590649;38;152087;-54
2021/08/15 01:46:27;;;;;;;;;;;;;;;22.31;54.16;101369.97;1587504;38;153861;-55
2021/08/15 01:47:59;;;;;;;;;;;;;;;22.31;54.39;101369.13;1588040;38;153536;-54
2021/08/15 01:49:31;;;;;;;;;;;;;;;22.29;54.49;101361.03;1589560;38;152823;-55
2021/08/15 01:51:03;;;;;;;;;;;;;;;22.30;54.54;101373.97;1587590;38;153145;-55
2021/08/15 01:52:35;;;;;;;;;;;;;;;22.30;54.56;101365.50;1589060;38;153516;-54
2021/08/15 01:54:07;;;;;;;;;;;;;;;22.29;54.73;101369.47;1589213;38;153453;-55
2021/08/15 01:55:39;;;;;;;;;;;;;;;22.29;54.56;101366.66;1586687;38;152711;-55
2021/08/15 01:57:13;;;;;;;;;;;;;;;22.30;54.36;101370.31;1588345;38;153536;-54
2021/08/15 01:58:46;;;;;;;;;;;;;;;22.27;54.68;101366.13;1589021;38;153911;-55
2021/08/15 02:00:18;;;;;;;;;;;;;;;22.28;54.51;101376.22;1589608;38;153844;-54
2021/08/15 02:01:49;;;;;;;;;;;;;;;22.28;54.28;101361.31;1587974;38;153431;-54
2021/08/15 02:03:22;;;;;;;;;;;;;;;22.28;54.20;101359.34;1589077;38;153278;-55
2021/08/15 02:04:53;;;;;;;;;;;;;;;22.28;54.32;101361.31;1589384;38;153406;-55
2021/08/15 02:06:25;;;;;;;;;;;;;;;22.26;54.45;101364.44;1591977;38;153801;-54
2021/08/15 02:07:57;;;;;;;;;;;;;;;22.26;54.51;101363.63;1588627;38;154193;-54
2021/08/15 02:09:29;;;;;;;;;;;;;;;22.26;54.83;101355.19;1589816;30;153461;-55
2021/08/15 02:11:01;;;;;;;;;;;;;;;22.27;54.42;101351.19;1589621;30;153529;-55
2021/08/15 02:12:33;;;;;;;;;;;;;;;22.26;54.45;101347.53;1588188;38;154758;-55
2021/08/15 02:14:05;;;;;;;;;;;;;;;22.29;54.29;101354.56;1589170;38;154215;-55
2021/08/15 02:15:37;;;;;;;;;;;;;;;22.33;54.13;101352.78;1586357;38;154052;-54
2021/08/15 02:17:09;;;;;;;;;;;;;;;22.33;54.28;101342.34;1589816;38;153482;-55
2021/08/15 02:18:40;;;;;;;;;;;;;;;22.32;54.01;101339.84;1586832;38;154101;-55
2021/08/15 02:20:14;;;;;;;;;;;;;;;22.34;54.09;101341.22;1589607;38;154206;-54
2021/08/15 02:21:46;;;;;;;;;;;;;;;22.35;53.88;101339.25;1588579;38;153636;-55
2021/08/15 02:23:17;;;;;;;;;;;;;;;22.35;54.00;101336.44;1588837;38;154068;-54
2021/08/15 02:24:49;;;;;;;;;;;;;;;22.36;53.71;101335.25;1588905;38;153895;-55
2021/08/15 02:26:22;;;;;;;;;;;;;;;22.35;53.56;101328.78;1589669;38;153922;-55
2021/08/15 02:27:54;;;;;;;;;;;;;;;22.34;53.83;101329.97;1588685;30;154069;-54
2021/08/15 02:29:26;;;;;;;;;;;;;;;22.35;53.79;101334.41;1590041;38;153423;-54
2021/08/15 02:30:58;;;;;;;;;;;;;;;22.35;53.69;101327.97;1588996;30;152061;-55
2021/08/15 02:32:30;;;;;;;;;;;;;;;22.34;53.77;101329.97;1588543;38;151880;-55
2021/08/15 02:34:02;;;;;;;;;;;;;;;22.34;53.77;101332.78;1588904;38;155177;-54
2021/08/15 02:35:34;;;;;;;;;;;;;;;22.35;53.49;101325.16;1589012;30;152727;-54
2021/08/15 02:37:06;;;;;;;;;;;;;;;22.33;53.96;101328.28;1589476;38;152675;-54
2021/08/15 02:38:37;;;;;;;;;;;;;;;22.34;53.94;101329.97;1587811;38;152531;-55
2021/08/15 02:40:10;;;;;;;;;;;;;;;22.35;53.61;101322.34;1588529;38;151785;-55
2021/08/15 02:41:42;;;;;;;;;;;;;;;22.35;53.76;101331.59;1589336;38;151840;-55
2021/08/15 02:43:14;;;;;;;;;;;;;;;22.34;53.74;101329.97;1589069;38;151812;-55
2021/08/15 02:44:46;;;;;;;;;;;;;;;22.35;53.96;101322.34;1586885;38;152255;-54
2021/08/15 02:46:18;;;;;;;;;;;;;;;22.33;53.56;101328.28;1590071;30;151982;-54
2021/08/15 02:47:50;;;;;;;;;;;;;;;22.32;54.02;101322.94;1587248;38;152213;-55
2021/08/15 02:49:22;;;;;;;;;;;;;;;22.31;53.72;101318.47;1589299;38;152379;-55
2021/08/15 02:50:56;;;;;;;;;;;;;;;22.31;53.65;101318.47;1590901;30;152204;-55
2021/08/15 02:52:31;;;;;;;;;;;;;;;22.31;53.65;101321.28;1589127;38;153451;-55
2021/08/15 02:54:04;;;;;;;;;;;;;;;22.32;53.88;101320.97;1589339;38;153296;-55
2021/08/15 02:55:36;;;;;;;;;;;;;;;22.32;54.12;101322.94;1586910;30;151831;-55
2021/08/15 02:57:09;;;;;;;;;;;;;;;22.31;54.12;101316.47;1589419;38;153327;-54
2021/08/15 02:58:41;;;;;;;;;;;;;;;22.31;54.08;101324.09;1588092;38;152715;-55
2021/08/15 03:00:13;;;;;;;;;;;;;;;22.32;53.84;101325.78;1589403;38;152701;-54
2021/08/15 03:01:45;;;;;;;;;;;;;;;22.30;53.76;101320.47;1587252;38;153460;-55
2021/08/15 03:03:18;;;;;;;;;;;;;;;22.31;53.86;101318.47;1588479;38;155818;-54
2021/08/15 03:04:50;;;;;;;;;;;;;;;22.31;54.24;101312.84;1586756;38;153314;-54
2021/08/15 03:06:22;;;;;;;;;;;;;;;22.29;53.74;101320.78;1587663;38;152740;-54
2021/08/15 03:07:55;;;;;;;;;;;;;;;22.29;53.92;101315.13;1589070;38;152880;-54
2021/08/15 03:09:26;;;;;;;;;;;;;;;22.27;54.21;101312.63;1588095;38;153542;-55
2021/08/15 03:10:59;;;;;;;;;;;;;;;22.26;54.23;101316.59;1588535;38;153429;-55
2021/08/15 03:12:30;;;;;;;;;;;;;;;22.25;53.79;101300.88;1591283;30;153644;-55
2021/08/15 03:14:03;;;;;;;;;;;;;;;22.25;54.02;101297.22;1587973;38;153698;-55
2021/08/15 03:15:37;;;;;;;;;;;;;;;22.26;53.82;101301.69;1588152;38;153987;-56
2021/08/15 03:17:09;;;;;;;;;;;;;;;22.23;54.33;101291.03;1588174;38;154008;-54
2021/08/15 03:18:43;;;;;;;;;;;;;;;22.24;54.42;101296.38;1588632;38;154032;-54
2021/08/15 03:20:15;;;;;;;;;;;;;;;22.24;54.00;101295.53;1588072;38;154123;-54
2021/08/15 03:21:47;;;;;;;;;;;;;;;22.23;54.11;101291.03;1587642;38;153443;-55
2021/08/15 03:23:20;;;;;;;;;;;;;;;22.22;54.48;101289.38;1587415;38;154092;-54
2021/08/15 03:24:51;;;;;;;;;;;;;;;22.20;54.27;101295.31;1587876;38;153589;-55
2021/08/15 03:26:24;;;;;;;;;;;;;;;22.20;54.46;101288.84;1589881;30;154362;-54
2021/08/15 03:27:56;;;;;;;;;;;;;;;22.20;54.29;101288.84;1587236;38;154086;-55
2021/08/15 03:29:28;;;;;;;;;;;;;;;22.18;54.58;101281.56;1587401;30;154408;-54
2021/08/15 03:31:00;;;;;;;;;;;;;;;22.17;54.25;101277.06;1587719;38;153436;-54
2021/08/15 03:32:32;;;;;;;;;;;;;;;22.18;54.25;101280.72;1588656;38;153265;-54
2021/08/15 03:34:04;;;;;;;;;;;;;;;22.18;54.26;101272.28;1590552;38;153536;-54
2021/08/15 03:35:36;;;;;;;;;;;;;;;22.17;54.53;101279.88;1588436;38;152316;-55
2021/08/15 03:37:08;;;;;;;;;;;;;;;22.16;54.65;101283.88;1587338;30;152431;-54
2021/08/15 03:38:41;;;;;;;;;;;;;;;22.16;54.84;101278.25;1587202;30;152192;-55
2021/08/15 03:40:13;;;;;;;;;;;;;;;22.16;54.96;101280.22;1587972;38;152037;-55
2021/08/15 03:41:46;;;;;;;;;;;;;;;22.16;55.03;101271.78;1587181;38;152131;-54
2021/08/15 03:43:18;;;;;;;;;;;;;;;22.16;55.02;101283.88;1588434;38;152200;-54
2021/08/15 03:44:51;;;;;;;;;;;;;;;22.17;55.04;101276.22;1587754;38;151903;-54
2021/08/15 03:46:25;;;;;;;;;;;;;;;22.15;54.78;101275.72;1589708;30;152048;-55
2021/08/15 03:47:57;;;;;;;;;;;;;;;22.14;55.20;101265.59;1587120;38;152227;-54
2021/08/15 03:49:30;;;;;;;;;;;;;;;22.14;55.35;101271.22;1586927;38;152270;-54
2021/08/15 03:51:06;;;;;;;;;;;;;;;22.14;55.12;101271.22;1587492;38;152653;-55
2021/08/15 03:52:39;;;;;;;;;;;;;;;22.12;55.00;101273.53;1588117;30;152232;-54
2021/08/15 03:54:16;;;;;;;;;;;;;;;22.11;55.24;101267.06;1586123;38;152031;-55
2021/08/15 03:55:50;;;;;;;;;;;;;;;22.11;55.45;101278.34;1588607;38;151807;-55
2021/08/15 03:57:22;;;;;;;;;;;;;;;22.10;55.41;101271.03;1589484;30;151965;-55
2021/08/15 03:58:58;;;;;;;;;;;;;;;22.10;55.34;101271.03;1585932;38;152814;-54
2021/08/15 04:00:43;;;;;;;;;;;;;;;22.09;55.82;101265.69;1588519;38;153870;-55
2021/08/15 04:02:16;;;;;;;;;;;;;;;22.09;55.64;101262.88;1588175;38;152822;-54
2021/08/15 04:03:48;;;;;;;;;;;;;;;22.09;55.44;101262.88;1586441;38;153080;-55
2021/08/15 04:05:20;;;;;;;;;;;;;;;22.09;55.90;101265.69;1586244;38;153264;-55
2021/08/15 04:06:52;;;;;;;;;;;;;;;22.08;55.67;101256.41;1588173;38;152863;-55
2021/08/15 04:08:26;;;;;;;;;;;;;;;22.07;55.88;101262.38;1588490;38;153416;-55
2021/08/15 04:09:57;;;;;;;;;;;;;;;22.07;56.16;101259.56;1587397;38;153751;-55
2021/08/15 04:11:29;;;;;;;;;;;;;;;22.07;56.19;101268.00;1588242;38;153717;-55
2021/08/15 04:13:02;;;;;;;;;;;;;;;22.05;56.28;101259.88;1588503;38;152984;-55
2021/08/15 04:14:34;;;;;;;;;;;;;;;22.07;56.16;101262.38;1586037;38;152867;-55
2021/08/15 04:16:07;;;;;;;;;;;;;;;22.05;55.95;101254.25;1588508;38;153340;-54
2021/08/15 04:17:39;;;;;;;;;;;;;;;22.05;56.23;101253.41;1589304;38;152985;-54
2021/08/15 04:19:11;;;;;;;;;;;;;;;22.04;56.49;101260.16;1589990;38;153627;-56
2021/08/15 04:20:43;;;;;;;;;;;;;;;22.03;56.49;101250.88;1588367;38;154075;-55
2021/08/15 04:22:15;;;;;;;;;;;;;;;22.03;56.43;101250.88;1588086;38;154311;-55
2021/08/15 04:23:47;;;;;;;;;;;;;;;22.03;56.26;101244.44;1588019;38;154005;-55
2021/08/15 04:25:19;;;;;;;;;;;;;;;22.03;56.70;101250.09;1589835;38;154229;-54
2021/08/15 04:26:51;;;;;;;;;;;;;;;22.02;56.41;101254.03;1588999;38;153448;-55
2021/08/15 04:28:24;;;;;;;;;;;;;;;22.02;56.57;101254.88;1586580;38;153468;-54
2021/08/15 04:29:56;;;;;;;;;;;;;;;22.02;56.35;101254.03;1588891;30;153747;-56
2021/08/15 04:31:28;;;;;;;;;;;;;;;22.01;56.54;101252.34;1587429;38;154646;-55
2021/08/15 04:33:02;;;;;;;;;;;;;;;22.01;56.86;101252.34;1587988;38;154504;-55
2021/08/15 04:34:35;;;;;;;;;;;;;;;22.00;56.71;101250.69;1588187;30;154506;-54
2021/08/15 04:36:08;;;;;;;;;;;;;;;21.99;57.01;101251.81;1589166;38;154327;-54
2021/08/15 04:37:41;;;;;;;;;;;;;;;21.97;57.01;101252.16;1589245;38;153440;-56
2021/08/15 04:39:14;;;;;;;;;;;;;;;21.96;56.99;101250.47;1588293;38;155302;-54
2021/08/15 04:40:46;;;;;;;;;;;;;;;21.96;57.25;101252.44;1590053;38;153945;-55
2021/08/15 04:42:19;;;;;;;;;;;;;;;21.96;57.08;101263.72;1585332;38;152594;-54
2021/08/15 04:43:50;;;;;;;;;;;;;;;21.97;57.09;101262.56;1586193;38;152511;-55
2021/08/15 04:45:22;;;;;;;;;;;;;;;21.96;57.11;101258.06;1586444;38;153111;-55
2021/08/15 04:46:55;;;;;;;;;;;;;;;21.95;57.09;101259.22;1587464;38;151953;-55
2021/08/15 04:48:27;;;;;;;;;;;;;;;21.95;57.41;101276.09;1589120;38;152598;-54
2021/08/15 04:49:59;;;;;;;;;;;;;;;21.94;57.01;101260.38;1584815;38;152179;-55
2021/08/15 04:51:31;;;;;;;;;;;;;;;21.94;57.47;101257.56;1588889;38;152134;-56
2021/08/15 04:53:03;;;;;;;;;;;;;;;21.93;57.51;101248.28;1589167;38;151923;-54
2021/08/15 04:54:35;;;;;;;;;;;;;;;21.94;57.15;101260.38;1587083;38;152842;-55
2021/08/15 04:56:07;;;;;;;;;;;;;;;21.93;57.35;101261.53;1587523;38;152271;-55
2021/08/15 04:57:39;;;;;;;;;;;;;;;21.92;57.30;101263.47;1586472;38;151903;-55
2021/08/15 04:59:11;;;;;;;;;;;;;;;21.93;57.49;101261.53;1587666;38;152102;-54
2021/08/15 05:00:44;;;;;;;;;;;;;;;21.92;57.83;101257.00;1586670;30;152151;-54
2021/08/15 05:02:17;;;;;;;;;;;;;;;21.91;57.48;101256.16;1590693;38;151908;-54
2021/08/15 05:03:51;;;;;;;;;;;;;;;21.91;57.83;101249.69;1588197;38;153858;-56
2021/08/15 05:05:24;;;;;;;;;;;;;;;21.89;57.77;101243.56;1588208;38;153517;-54
2021/08/15 05:06:55;;;;;;;;;;;;;;;21.91;57.63;101249.69;1587634;38;153193;-55
2021/08/15 05:08:31;;;;;;;;;;;;;;;21.88;57.73;101253.97;1588058;38;152795;-55
2021/08/15 05:10:03;;;;;;;;;;;;;;;21.88;58.15;101256.78;1586644;38;153604;-55
2021/08/15 05:11:35;;;;;;;;;;;;;;;21.87;58.04;101255.13;1586718;30;153255;-54
2021/08/15 05:13:07;;;;;;;;;;;;;;;21.87;57.94;101246.69;1586945;38;152915;-54
2021/08/15 05:14:39;;;;;;;;;;;;;;;21.87;58.16;101254.28;1588514;38;153522;-54
2021/08/15 05:16:11;;;;;;;;;;;;;;;21.86;58.12;101247.81;1585674;38;153970;-54
2021/08/15 05:17:42;;;;;;;;;;;;;;;21.85;58.18;101254.59;1588678;38;154208;-54
2021/08/15 05:19:14;;;;;;;;;;;;;;;21.86;58.22;101255.41;1588346;38;153467;-55
2021/08/15 05:20:46;;;;;;;;;;;;;;;21.85;58.47;101262.22;1588299;38;153365;-54
2021/08/15 05:22:18;;;;;;;;;;;;;;;21.84;58.22;101266.16;1587887;38;153223;-54
2021/08/15 05:23:50;;;;;;;;;;;;;;;21.83;58.48;101264.50;1591129;30;152754;-54
2021/08/15 05:25:21;;;;;;;;;;;;;;;21.83;58.35;101258.88;1589059;38;154075;-54
2021/08/15 05:26:53;;;;;;;;;;;;;;;21.84;58.23;101260.53;1589245;38;153888;-54
2021/08/15 05:28:25;;;;;;;;;;;;;;;21.84;58.43;101264.19;1586202;38;154237;-54
2021/08/15 05:29:57;;;;;;;;;;;;;;;21.83;58.17;101265.31;1588427;38;153471;-54
2021/08/15 05:31:29;;;;;;;;;;;;;;;21.82;58.25;101271.25;1587189;38;154739;-54
2021/08/15 05:33:01;;;;;;;;;;;;;;;21.81;58.65;101267.59;1587269;38;154902;-55
2021/08/15 05:34:33;;;;;;;;;;;;;;;21.80;58.36;101268.78;1588379;38;153511;-54
2021/08/15 05:36:05;;;;;;;;;;;;;;;21.81;58.58;101263.94;1588997;38;154564;-55
2021/08/15 05:37:38;;;;;;;;;;;;;;;21.80;58.45;101267.94;1587210;30;154475;-54
2021/08/15 05:39:10;;;;;;;;;;;;;;;21.79;58.67;101269.06;1588087;38;154618;-54
2021/08/15 05:40:42;;;;;;;;;;;;;;;21.78;58.46;101267.38;1588878;38;154060;-54
2021/08/15 05:42:14;;;;;;;;;;;;;;;21.79;58.95;101269.06;1586986;30;154104;-54
2021/08/15 05:43:46;;;;;;;;;;;;;;;21.77;58.61;101275.00;1587608;38;154279;-55
2021/08/15 05:45:18;;;;;;;;;;;;;;;21.78;58.90;101270.22;1590170;30;153430;-54
2021/08/15 05:46:50;;;;;;;;;;;;;;;21.78;58.69;101273.03;1590219;38;154222;-55
2021/08/15 05:48:21;;;;;;;;;;;;;;;21.74;58.74;101270.84;1588333;38;152439;-55
2021/08/15 05:49:53;;;;;;;;;;;;;;;21.77;59.00;101276.97;1588739;38;152064;-55
2021/08/15 05:51:25;;;;;;;;;;;;;;;21.76;58.79;101272.50;1587178;38;152746;-54
2021/08/15 05:52:57;;;;;;;;;;;;;;;21.75;58.83;101271.69;1589042;30;151827;-58
2021/08/15 05:54:29;;;;;;;;;;;;;;;21.77;58.92;101271.34;1587953;38;151940;-55
2021/08/15 05:56:01;;;;;;;;;;;;;;;21.75;59.07;101268.84;1586736;38;152599;-54
2021/08/15 05:57:33;;;;;;;;;;;;;;;21.77;58.90;101276.97;1589015;30;152843;-54
2021/08/15 05:59:05;;;;;;;;;;;;;;;21.75;58.91;101280.13;1587990;38;152113;-54
2021/08/15 06:00:36;;;;;;;;;;;;;;;21.74;59.16;101284.06;1588522;38;151811;-55
2021/08/15 06:02:09;;;;;;;;;;;;;;;21.74;58.95;101281.25;1586136;38;152087;-54
2021/08/15 06:03:41;;;;;;;;;;;;;;;21.76;58.93;101272.50;1588766;38;152133;-54
2021/08/15 06:05:13;;;;;;;;;;;;;;;21.74;59.06;101273.66;1588194;38;152194;-55
2021/08/15 06:06:45;;;;;;;;;;;;;;;21.72;59.16;101278.72;1587685;38;152268;-55
2021/08/15 06:08:17;;;;;;;;;;;;;;;21.72;59.25;101275.09;1590386;38;152097;-54
2021/08/15 06:09:49;;;;;;;;;;;;;;;21.73;59.15;101276.75;1586737;38;152814;-55
2021/08/15 06:11:21;;;;;;;;;;;;;;;21.72;59.28;101280.69;1588513;38;153014;-55
2021/08/15 06:12:53;;;;;;;;;;;;;;;21.72;59.10;101277.91;1588656;38;153302;-54
2021/08/15 06:14:29;;;;;;;;;;;;;;;21.73;59.34;101273.94;1586377;30;153054;-54
2021/08/15 06:16:01;;;;;;;;;;;;;;;21.74;59.40;101270.84;1588742;38;154233;-54
2021/08/15 06:17:33;;;;;;;;;;;;;;;21.73;59.51;101276.75;1588872;30;153010;-55
2021/08/15 06:19:05;;;;;;;;;;;;;;;21.71;59.18;101274.25;1587974;38;153176;-55
2021/08/15 06:20:37;;;;;;;;;;;;;;;21.71;59.36;101276.25;1586150;38;152652;-54
2021/08/15 06:22:09;;;;;;;;;;;;;;;21.69;59.34;101270.91;1587795;38;152725;-55
2021/08/15 06:23:41;;;;;;;;;;;;;;;21.70;59.49;101281.03;1588140;38;153393;-55
2021/08/15 06:25:15;;;;;;;;;;;;;;;21.70;59.75;101281.03;1588536;38;153257;-55
2021/08/15 06:26:46;;;;;;;;;;;;;;;21.70;59.34;101280.19;1588251;38;153426;-55
2021/08/15 06:28:18;;;;;;;;;;;;;;;21.69;59.57;101272.91;1586873;30;153288;-55
2021/08/15 06:29:50;;;;;;;;;;;;;;;21.66;59.96;101277.16;1588970;38;153452;-54
2021/08/15 06:31:23;;;;;;;;;;;;;;;21.68;59.52;101279.66;1589419;38;153710;-55
2021/08/15 06:32:55;;;;;;;;;;;;;;;21.68;60.01;101276.84;1586661;38;153539;-55
2021/08/15 06:34:27;;;;;;;;;;;;;;;21.68;59.69;101283.31;1588843;38;154071;-54
2021/08/15 06:35:59;;;;;;;;;;;;;;;21.68;59.69;101276.84;1589441;38;154671;-53
2021/08/15 06:37:31;;;;;;;;;;;;;;;21.69;60.13;101270.09;1588142;38;154203;-54
2021/08/15 06:39:05;;;;;;;;;;;;;;;21.67;59.86;101270.38;1587776;38;154153;-55
2021/08/15 06:40:37;;;;;;;;;;;;;;;21.68;59.79;101269.25;1588033;38;153329;-54
2021/08/15 06:42:09;;;;;;;;;;;;;;;21.67;60.10;101269.53;1587833;38;153371;-55
2021/08/15 06:43:41;;;;;;;;;;;;;;;21.66;60.23;101268.75;1589341;38;153933;-55
2021/08/15 06:45:12;;;;;;;;;;;;;;;21.66;60.38;101274.38;1589296;38;153965;-55
2021/08/15 06:46:44;;;;;;;;;;;;;;;21.67;60.19;101270.38;1588317;38;153671;-55
2021/08/15 06:48:16;;;;;;;;;;;;;;;21.66;60.56;101273.53;1588640;38;154326;-54
2021/08/15 06:49:48;;;;;;;;;;;;;;;21.63;60.45;101274.13;1587428;38;153937;-55
2021/08/15 06:51:20;;;;;;;;;;;;;;;21.64;60.26;101282.25;1590438;38;154274;-54
2021/08/15 06:52:52;;;;;;;;;;;;;;;21.64;60.31;101275.78;1587947;38;151838;-54
2021/08/15 06:54:24;;;;;;;;;;;;;;;21.63;60.85;101277.78;1588564;38;152113;-54
2021/08/15 06:55:58;;;;;;;;;;;;;;;21.61;60.49;101277.25;1589352;38;151994;-55
2021/08/15 06:57:30;;;;;;;;;;;;;;;21.62;60.83;101278.91;1587944;38;152036;-54
2021/08/15 06:59:01;;;;;;;;;;;;;;;21.63;60.84;101271.31;1589482;30;151928;-54
2021/08/15 07:00:33;;;;;;;;;;;;;;;21.63;60.55;101274.97;1590100;30;151776;-55
2021/08/15 07:02:06;;;;;;;;;;;;;;;21.62;60.51;101278.91;1589381;30;151903;-54
2021/08/15 07:03:38;;;;;;;;;;;;;;;21.61;60.94;101277.25;1587279;38;152263;-54
2021/08/15 07:05:10;;;;;;;;;;;;;;;21.62;60.43;101266.84;1589847;38;151906;-55
2021/08/15 07:06:42;;;;;;;;;;;;;;;21.63;60.69;101271.31;1589888;38;152038;-55
2021/08/15 07:08:15;;;;;;;;;;;;;;;21.62;61.05;101270.47;1587556;38;152509;-55
2021/08/15 07:09:46;;;;;;;;;;;;;;;21.63;60.79;101268.50;1588809;38;152173;-55
2021/08/15 07:11:18;;;;;;;;;;;;;;;21.63;60.48;101269.34;1589759;30;152143;-59
2021/08/15 07:12:53;;;;;;;;;;;;;;;21.62;60.88;101278.91;1589667;30;151907;-55
2021/08/15 07:14:28;;;;;;;;;;;;;;;21.62;60.96;101267.66;1590564;38;151992;-54
2021/08/15 07:16:02;;;;;;;;;;;;;;;21.62;61.18;101262.03;1588524;38;152771;-55
2021/08/15 07:17:37;;;;;;;;;;;;;;;21.63;61.01;101258.09;1589247;30;153715;-54
2021/08/15 07:19:09;;;;;;;;;;;;;;;21.62;60.92;101267.66;1588921;38;153596;-54
2021/08/15 07:20:40;;;;;;;;;;;;;;;21.62;61.18;101256.41;1588968;38;153692;-55
2021/08/15 07:22:12;;;;;;;;;;;;;;;21.61;61.10;101251.13;1587257;38;153483;-55
2021/08/15 07:23:44;;;;;;;;;;;;;;;21.62;60.85;101256.41;1588757;38;152362;-54
2021/08/15 07:25:17;;;;;;;;;;;;;;;21.64;60.87;101259.75;1590447;30;152848;-55
2021/08/15 07:26:48;;;;;;;;;;;;;;;21.64;60.99;101254.13;1589503;38;152995;-54
2021/08/15 07:28:20;;;;;;;;;;;;;;;21.64;61.23;101250.47;1587473;30;154080;-54
2021/08/15 07:29:52;;;;;;;;;;;;;;;21.64;61.26;101256.09;1587083;38;152868;-54
2021/08/15 07:31:24;;;;;;;;;;;;;;;21.62;61.08;101247.97;1590122;30;152772;-54
2021/08/15 07:32:57;;;;;;;;;;;;;;;21.63;61.45;101243.19;1589962;38;152857;-55
2021/08/15 07:34:29;;;;;;;;;;;;;;;21.64;61.49;101256.09;1590391;30;153481;-55
2021/08/15 07:36:01;;;;;;;;;;;;;;;21.64;61.61;101248.50;1592508;38;152917;-55
2021/08/15 07:37:33;;;;;;;;;;;;;;;21.63;61.48;101246.00;1588122;38;153856;-55
2021/08/15 07:39:05;;;;;;;;;;;;;;;21.63;61.25;101246.84;1588034;38;153377;-55
2021/08/15 07:40:37;;;;;;;;;;;;;;;21.65;61.26;101249.34;1587838;38;153830;-54
2021/08/15 07:42:09;;;;;;;;;;;;;;;21.64;61.31;101256.09;1587187;38;154235;-55
2021/08/15 07:43:41;;;;;;;;;;;;;;;21.64;61.72;101250.47;1586883;38;153476;-54
2021/08/15 07:45:13;;;;;;;;;;;;;;;21.64;61.34;101245.69;1588308;38;153439;-54
2021/08/15 07:46:44;;;;;;;;;;;;;;;21.64;61.41;101242.06;1591031;30;153788;-55
2021/08/15 07:48:16;;;;;;;;;;;;;;;21.64;61.57;101244.84;1587503;38;153447;-54